• Join FlightAware (Why Join?)
  • Login
  • US Flag 
10:53AM EDT


 

Airport Tracker/Info


-or-


 

Live Flight TrackerFlight Track Log ✈ N735YG ✈ 22-Jul-2013 ✈ KEYE - KBTL

Flight Track Log - Related Links

Times and Time Zones

All times are in EDT time to prevent confusion due to time zone crossing. See the N735YG flight status page for this flight to view local times or setup timezone preferences in your user account.

Time Position Orientation Groundspeed Altitude Reporting Facility
EDT Latitude Longitude Course Direction KTS MPH feet Rate Location/Type
09:19AM 39.8333 -86.2833 21° North 78 90 1,200  Level Indianapolis TRACON
09:21AM 39.8667 -86.2667 21° North 85 98 2,300 720 Climbing Indianapolis TRACON
09:22AM 39.9000 -86.2667 360° North 100 115 3,000 660 Climbing Indianapolis TRACON
09:23AM 39.9194 -86.2633 North 95 109 3,800 660 Climbing Indianapolis Center
09:24AM 39.9461 -86.2522 18° North 97 112 4,500 540 Climbing Indianapolis Center
09:25AM 39.9711 -86.2392 22° Northeast 98 113 5,000 180 Climbing Indianapolis Center
09:26AM 40.0144 -86.2214 17° North 119 137 4,900 -60 Descending Indianapolis Center
09:27AM 40.0533 -86.2056 17° North 136 157 4,900  Level Indianapolis Center
09:28AM 40.0917 -86.1900 17° North 141 162 4,900  Level Indianapolis Center
09:29AM 40.1294 -86.1739 18° North 143 165 4,900 -60 Level Indianapolis Center
09:30AM 40.1744 -86.1561 17° North 141 162 4,800  Descending Chicago Center
09:31AM 40.2108 -86.1411 17° North 139 160 4,900  Climbing Chicago Center
09:32AM 40.2472 -86.1256 18° North 137 158 4,900  Level Chicago Center
09:33AM 40.2853 -86.1097 18° North 142 163 4,900  Level Chicago Center
09:34AM 40.3308 -86.0908 18° North 143 165 4,900  Level Chicago Center
09:35AM 40.3686 -86.0756 17° North 143 165 4,900  Level Chicago Center
09:36AM 40.4067 -86.0603 17° North 143 165 4,900  Level Chicago Center
09:38AM 40.4631 -86.0378 17° North 144 166 5,000  Climbing Chicago Center
09:38AM 40.4831 -86.0278 21° North 145 167 5,000  Level Chicago Center
09:39AM 40.5208 -86.0114 18° North 145 167 5,000 -60 Level Chicago Center
09:40AM 40.5672 -85.9942 16° North 145 167 4,900  Descending Chicago Center
09:41AM 40.6056 -85.9786 17° North 145 167 5,000  Climbing Chicago Center
09:43AM 40.6736 -85.9481 19° North 145 167 4,900 -120 Descending Indianapolis Center
09:44AM 40.7128 -85.9342 15° North 145 167 4,800 -60 Descending Indianapolis Center
09:45AM 40.7500 -85.9161 20° North 144 166 4,800 60 Level Indianapolis Center
09:47AM 40.7969 -85.8961 18° North 142 163 5,000  Climbing Chicago Center
09:48AM 40.8422 -85.8794 16° North 141 162 4,900 -60 Descending Chicago Center
09:49AM 40.8783 -85.8622 20° North 138 159 4,900  Level Chicago Center
09:50AM 40.9158 -85.8481 16° North 140 161 5,000  Climbing Chicago Center
09:51AM 40.9528 -85.8331 17° North 140 161 4,900 -60 Descending Chicago Center
09:52AM 40.9894 -85.8161 19° North 140 161 4,900  Level Chicago Center
09:53AM 41.0250 -85.8003 19° North 137 158 4,900  Level Chicago Center
09:54AM 41.0683 -85.7833 16° North 135 155 5,000  Climbing Chicago Center
09:55AM 41.1028 -85.7678 19° North 133 153 4,900  Descending Chicago Center
09:56AM 41.1356 -85.7500 22° Northeast 130 150 5,000  Climbing Chicago Center
09:57AM 41.1689 -85.7350 19° North 128 147 5,000  Level Chicago Center
09:58AM 41.2028 -85.7231 15° North 127 146 5,000  Level Chicago Center
09:59AM 41.2372 -85.7100 16° North 128 147 5,000  Level Chicago Center
10:00AM 41.2792 -85.6942 16° North 129 148 5,000  Level Chicago Center
10:01AM 41.3142 -85.6794 18° North 130 150 5,000  Level Chicago Center
10:02AM 41.3500 -85.6647 17° North 132 152 5,000  Level Chicago Center
10:03AM 41.3858 -85.6486 19° North 134 154 5,000  Level Chicago Center
10:04AM 41.4228 -85.6325 18° North 136 157 5,000  Level Chicago Center
10:05AM 41.4583 -85.6178 17° North 136 157 5,000  Level Chicago Center
10:06AM 41.5019 -85.5994 17° North 136 157 5,000  Level Chicago Center
10:07AM 41.5389 -85.5833 18° North 137 158 5,000  Level Chicago Center
10:08AM 41.5758 -85.5675 18° North 139 160 5,000  Level Chicago Center
10:09AM 41.6144 -85.5514 17° North 141 162 5,000  Level Chicago Center
10:10AM 41.6522 -85.5353 18° North 141 162 5,000  Level Chicago Center
10:11AM 41.6903 -85.5178 19° North 142 163 5,000  Level Chicago Center
10:13AM 41.7289 -85.5014 18° North 143 165 5,000  Level Chicago Center
10:14AM 41.7661 -85.4858 17° North 141 162 5,000  Level Chicago Center
10:15AM 41.8111 -85.4681 16° North 140 161 5,000 -60 Level Chicago Center
10:16AM 41.8475 -85.4514 19° North 139 160 4,900  Descending Chicago Center
10:17AM 41.8844 -85.4350 18° North 140 161 5,000  Climbing Chicago Center
10:18AM 41.9222 -85.4203 16° North 141 162 5,000 -60 Level Chicago Center
10:19AM 41.9603 -85.4025 19° North 143 165 4,900 -180 Descending Chicago Center
10:20AM 41.9964 -85.3744 30° Northeast 148 170 4,700 -300 Descending Chicago Center
10:21AM 42.0419 -85.3450 26° Northeast 151 174 4,400 -360 Descending Chicago Center
10:22AM 42.0814 -85.3231 22° Northeast 153 176 4,000 -300 Descending Chicago Center
10:23AM 42.1192 -85.2997 25° Northeast 151 174 3,800 -300 Descending Chicago Center
10:24AM 42.1631 -85.2914 North 159 183 3,400 -420 Descending Chicago Center
10:25AM 42.2058 -85.2803 11° North 158 182 3,000 -480 Descending Chicago Center
10:26AM 42.2567 -85.2650 13° North 157 181 2,500 -540 Descending Chicago Center
10:27AM 42.2947 -85.2517 15° North 149 171 2,000 -480 Descending Chicago Center
10:28AM 42.3125 -85.2236 49° Northeast 117 135 1,600 -300 Descending Chicago Center
10:29AM 42.3308 -85.2133 23° Northeast 105 121 1,400 -240 Descending Chicago Center